METAR Data
IDs: Format: Raw Decoded Include TAF

Data at: 2358 UTC 29 May 2020

METAR for:KGAI (Gaithersburg/Montgom, MD, US)
Text:KGAI 292356Z AUTO 20005KT 10SM CLR 26/21 A2993 RMK AO2 SLP143 60000 T02610211 10306 20261 56001
Temperature: 26.1°C ( 79°F)
Dewpoint: 21.1°C ( 70°F) [RH = 74%]
Pressure (altimeter):29.93 inches Hg (1013.6 mb) [Sea level pressure: 1014.3 mb]
Winds:from the SSW (200 degrees) at 6 MPH (5 knots; 2.6 m/s)
Visibility:10 or more sm (16+ km)
Ceiling:at least 12,000 feet AGL
Clouds:sky clear below 12,000 feet AGL
QC Flag:automated observation with no human augmentation